Time;durP1;ratioP1;P1;durP2;ratioP2;P2;SDS_P1;SDS_P2;PMS_P1;PMS_P2;Temp;Humidity;BMP_temperature;BMP_pressure;BME280_temperature;BME280_humidity;BME280_pressure;Samples;Min_cycle;Max_cycle;Signal;HPM_P1;HPM_P2
2023/08/12 00:00:11;;;;;;;3.03;1.70;;;;;;;;;;5093420;28;20028;-80
2023/08/12 00:02:39;;;;;;;2.90;1.52;;;;;;;;;;5111026;28;20541;-80
2023/08/12 00:05:05;;;;;;;3.20;1.60;;;;;;;;;;5110962;28;20028;-80
2023/08/12 00:07:32;;;;;;;2.83;1.70;;;;;;;;;;5075892;28;20062;-80
2023/08/12 00:09:58;;;;;;;1.40;1.27;;;;;;;;;;5111138;28;20034;-80
2023/08/12 00:12:23;;;;;;;2.33;1.52;;;;;;;;;;5110959;28;20482;-80
2023/08/12 00:14:49;;;;;;;2.20;1.45;;;;;;;;;;5092602;28;20032;-80
2023/08/12 00:17:14;;;;;;;2.95;1.55;;;;;;;;;;5110990;28;20470;-80
2023/08/12 00:19:39;;;;;;;3.83;1.80;;;;;;;;;;5110892;28;20154;-80
2023/08/12 00:22:05;;;;;;;2.33;1.67;;;;;;;;;;5092599;28;20470;-80
2023/08/12 00:24:30;;;;;;;2.10;1.50;;;;;;;;;;5092689;28;20108;-80
2023/08/12 00:26:56;;;;;;;1.92;1.23;;;;;;;;;;5092346;28;20138;-80
2023/08/12 00:29:21;;;;;;;1.85;1.25;;;;;;;;;;5092614;28;20032;-80
2023/08/12 00:31:47;;;;;;;2.63;1.50;;;;;;;;;;5110338;28;20042;-80
2023/08/12 00:34:12;;;;;;;2.28;1.52;;;;;;;;;;5110938;28;20035;-80
2023/08/12 00:36:37;;;;;;;2.85;1.88;;;;;;;;;;5110588;28;20086;-80
2023/08/12 00:39:03;;;;;;;2.47;1.75;;;;;;;;;;5075170;28;20034;-80
2023/08/12 00:41:29;;;;;;;2.25;1.40;;;;;;;;;;5092188;28;20023;-80
2023/08/12 00:43:55;;;;;;;1.80;1.65;;;;;;;;;;5092416;28;20027;-80
2023/08/12 00:46:20;;;;;;;2.28;1.73;;;;;;;;;;5092225;28;20089;-80
2023/08/12 00:48:46;;;;;;;2.80;1.70;;;;;;;;;;5110167;28;20105;-80
2023/08/12 00:51:11;;;;;;;3.35;1.80;;;;;;;;;;5081390;28;20139;-80
2023/08/12 00:53:37;;;;;;;2.08;1.52;;;;;;;;;;5095318;28;20143;-80
2023/08/12 00:56:03;;;;;;;2.45;1.80;;;;;;;;;;5112044;28;20027;-80
2023/08/12 00:58:28;;;;;;;3.35;1.67;;;;;;;;;;5078232;28;20088;-80
2023/08/12 01:00:54;;;;;;;3.63;1.92;;;;;;;;;;5095211;28;20471;-80
2023/08/12 01:03:19;;;;;;;2.30;1.67;;;;;;;;;;5122063;28;20435;-79
2023/08/12 01:05:46;;;;;;;2.78;1.90;;;;;;;;;;5098647;28;20433;-80
2023/08/12 01:08:11;;;;;;;3.80;2.20;;;;;;;;;;5116561;28;20108;-80
2023/08/12 01:10:40;;;;;;;2.40;1.55;;;;;;;;;;5098106;28;20078;-80
2023/08/12 01:13:24;;;;;;;2.40;1.90;;;;;;;;;;5081940;28;20462;-80
2023/08/12 01:15:50;;;;;;;;;;;;;;;;;;5098472;28;20389;-80
2023/08/12 01:18:16;;;;;;;2.03;1.70;;;;;;;;;;5116290;28;19914;-80
2023/08/12 01:20:41;;;;;;;3.05;1.75;;;;;;;;;;5098312;28;20040;-80
2023/08/12 01:23:13;;;;;;;2.78;2.00;;;;;;;;;;5098395;28;20049;-80
2023/08/12 01:25:39;;;;;;;2.92;2.42;;;;;;;;;;5116456;28;20102;-80
2023/08/12 01:28:05;;;;;;;5.65;2.33;;;;;;;;;;5116249;28;20111;-80
2023/08/12 01:30:31;;;;;;;2.65;1.60;;;;;;;;;;5080917;28;20092;-80
2023/08/12 01:33:15;;;;;;;4.00;2.58;;;;;;;;;;5097952;28;20032;-80
2023/08/12 01:35:49;;;;;;;3.53;2.13;;;;;;;;;;5097897;28;20024;-80
2023/08/12 01:38:14;;;;;;;;;;;;;;;;;;5098260;28;20030;-80
2023/08/12 01:40:42;;;;;;;4.23;2.27;;;;;;;;;;5080753;28;20294;-80
2023/08/12 01:43:08;;;;;;;3.08;1.92;;;;;;;;;;5098413;28;20055;-80
2023/08/12 01:45:33;;;;;;;2.88;2.38;;;;;;;;;;5115817;28;20066;-80
2023/08/12 01:47:59;;;;;;;2.85;1.90;;;;;;;;;;5116056;28;20059;-80
2023/08/12 01:50:25;;;;;;;2.78;1.63;;;;;;;;;;5097864;28;20039;-80
2023/08/12 01:52:51;;;;;;;4.55;2.28;;;;;;;;;;5097361;28;20050;-80
2023/08/12 01:55:16;;;;;;;4.10;2.55;;;;;;;;;;5080933;28;20127;-80
2023/08/12 01:57:41;;;;;;;4.18;2.63;;;;;;;;;;5115880;28;20107;-80
2023/08/12 02:00:08;;;;;;;3.08;2.53;;;;;;;;;;5080393;28;20432;-80
2023/08/12 02:02:33;;;;;;;2.67;1.90;;;;;;;;;;5097634;28;20020;-80
2023/08/12 02:04:58;;;;;;;2.58;1.90;;;;;;;;;;5097214;28;20054;-80
2023/08/12 02:07:24;;;;;;;3.05;1.88;;;;;;;;;;5097122;28;20520;-80
2023/08/12 02:09:49;;;;;;;5.05;2.20;;;;;;;;;;5115629;28;20108;-80
2023/08/12 02:12:14;;;;;;;5.53;2.20;;;;;;;;;;5080073;28;20409;-79
2023/08/12 02:14:40;;;;;;;2.97;1.85;;;;;;;;;;5114291;28;20030;-79
2023/08/12 02:17:05;;;;;;;4.25;2.20;;;;;;;;;;5096869;28;20485;-80
2023/08/12 02:19:32;;;;;;;3.55;2.15;;;;;;;;;;5115156;28;20042;-80
2023/08/12 02:21:58;;;;;;;2.53;2.20;;;;;;;;;;5080599;28;20077;-80
2023/08/12 02:24:24;;;;;;;3.13;2.00;;;;;;;;;;5096807;28;20035;-80
2023/08/12 02:26:49;;;;;;;2.60;1.90;;;;;;;;;;5115240;28;20023;-80
2023/08/12 02:29:15;;;;;;;1.92;1.65;;;;;;;;;;5097113;28;20057;-80
2023/08/12 02:31:40;;;;;;;2.95;2.53;;;;;;;;;;5114820;28;20026;-80
2023/08/12 02:34:05;;;;;;;3.00;2.17;;;;;;;;;;5114846;28;20466;-80
2023/08/12 02:36:31;;;;;;;2.55;1.90;;;;;;;;;;5097291;28;20027;-80
2023/08/12 02:38:56;;;;;;;3.13;1.77;;;;;;;;;;5079685;28;20537;-80
2023/08/12 02:41:22;;;;;;;3.45;2.00;;;;;;;;;;5096650;28;20490;-80
2023/08/12 02:43:47;;;;;;;2.08;1.65;;;;;;;;;;5096517;28;20389;-80
2023/08/12 02:46:15;;;;;;;3.67;1.92;;;;;;;;;;5096354;28;20132;-80
2023/08/12 02:48:40;;;;;;;4.22;1.85;;;;;;;;;;5096827;28;20046;-80
2023/08/12 02:51:06;;;;;;;3.25;2.20;;;;;;;;;;5096018;28;20047;-80
2023/08/12 02:53:31;;;;;;;2.40;1.85;;;;;;;;;;5079895;28;20136;-80
2023/08/12 02:55:56;;;;;;;3.40;2.33;;;;;;;;;;5096207;28;20042;-80
2023/08/12 02:58:22;;;;;;;2.95;2.00;;;;;;;;;;5114706;28;20052;-80
2023/08/12 03:00:47;;;;;;;3.55;1.85;;;;;;;;;;5096747;28;20465;-80
2023/08/12 03:03:12;;;;;;;3.13;2.03;;;;;;;;;;5114319;28;20019;-80
2023/08/12 03:05:38;;;;;;;2.67;1.77;;;;;;;;;;5079095;28;20027;-80
2023/08/12 03:08:04;;;;;;;2.80;2.10;;;;;;;;;;5114511;28;20051;-80
2023/08/12 03:10:30;;;;;;;4.28;2.10;;;;;;;;;;5079308;28;20023;-80
2023/08/12 03:12:56;;;;;;;3.70;2.30;;;;;;;;;;5096287;28;20028;-80
2023/08/12 03:15:21;;;;;;;2.90;2.20;;;;;;;;;;5114289;28;20550;-80
2023/08/12 03:17:47;;;;;;;4.65;2.20;;;;;;;;;;5096215;28;20028;-80
2023/08/12 03:20:12;;;;;;;6.70;2.25;;;;;;;;;;5095902;28;20475;-80
2023/08/12 03:22:37;;;;;;;1.98;1.75;;;;;;;;;;5079089;28;20093;-80
2023/08/12 03:25:04;;;;;;;5.22;2.13;;;;;;;;;;5113999;28;20045;-80
2023/08/12 03:27:29;;;;;;;3.47;2.50;;;;;;;;;;5095523;28;20016;-80
2023/08/12 03:29:55;;;;;;;2.63;2.10;;;;;;;;;;5078828;28;20379;-80
2023/08/12 03:32:20;;;;;;;2.00;1.80;;;;;;;;;;5113788;28;20028;-80
2023/08/12 03:34:46;;;;;;;4.00;2.42;;;;;;;;;;5095943;28;20046;-80
2023/08/12 03:37:11;;;;;;;3.20;2.20;;;;;;;;;;5095646;28;20389;-80
2023/08/12 03:39:36;;;;;;;3.47;2.08;;;;;;;;;;5113956;28;20038;-80
2023/08/12 03:42:02;;;;;;;3.20;1.98;;;;;;;;;;5113819;28;20432;-80
2023/08/12 03:44:27;;;;;;;2.85;1.90;;;;;;;;;;5095600;28;20404;-80
2023/08/12 03:46:53;;;;;;;2.75;2.00;;;;;;;;;;5095860;28;20103;-80
2023/08/12 03:49:18;;;;;;;2.90;2.00;;;;;;;;;;5113654;28;20067;-80
2023/08/12 03:51:43;;;;;;;2.50;2.08;;;;;;;;;;5113302;28;20040;-80
2023/08/12 03:54:09;;;;;;;4.47;2.90;;;;;;;;;;5095374;28;20043;-79
2023/08/12 03:56:34;;;;;;;6.07;2.53;;;;;;;;;;5095270;28;20032;-79
2023/08/12 03:58:59;;;;;;;3.33;2.00;;;;;;;;;;5078464;28;20031;-80
2023/08/12 04:01:25;;;;;;;5.82;2.42;;;;;;;;;;5078232;28;20023;-80
2023/08/12 04:03:50;;;;;;;3.53;2.75;;;;;;;;;;5095221;28;20027;-80
2023/08/12 04:06:16;;;;;;;3.13;2.30;;;;;;;;;;5095455;28;20057;-79
2023/08/12 04:08:41;;;;;;;4.65;3.38;;;;;;;;;;5095297;28;20027;-79
2023/08/12 04:11:06;;;;;;;3.65;2.55;;;;;;;;;;5113187;28;20039;-79
2023/08/12 04:13:32;;;;;;;3.55;2.78;;;;;;;;;;5113201;28;20386;-79
2023/08/12 04:15:57;;;;;;;3.05;2.10;;;;;;;;;;5094921;28;20038;-79
2023/08/12 04:18:23;;;;;;;2.55;2.08;;;;;;;;;;5094930;28;20027;-79
2023/08/12 04:20:49;;;;;;;4.03;2.90;;;;;;;;;;5113546;28;20032;-79
2023/08/12 04:23:15;;;;;;;5.38;2.90;;;;;;;;;;5113364;28;20034;-79
2023/08/12 04:25:44;;;;;;;3.53;2.60;;;;;;;;;;5077851;28;20027;-79
2023/08/12 04:28:09;;;;;;;4.00;2.10;;;;;;;;;;5094873;28;20073;-79
2023/08/12 04:30:35;;;;;;;4.45;2.80;;;;;;;;;;5095069;28;20427;-79
2023/08/12 04:33:00;;;;;;;4.38;2.60;;;;;;;;;;5112867;28;20060;-79
2023/08/12 04:35:26;;;;;;;3.60;2.80;;;;;;;;;;5078338;28;20205;-79
2023/08/12 04:37:51;;;;;;;3.53;2.55;;;;;;;;;;5096162;28;20063;-79
2023/08/12 04:40:17;;;;;;;3.28;2.60;;;;;;;;;;5098769;28;20035;-79
2023/08/12 04:42:42;;;;;;;3.63;2.40;;;;;;;;;;5117163;28;20114;-79
2023/08/12 04:45:08;;;;;;;2.90;2.30;;;;;;;;;;5117101;28;20032;-79
2023/08/12 04:47:33;;;;;;;3.97;2.78;;;;;;;;;;5098632;28;20055;-79
2023/08/12 04:49:58;;;;;;;3.42;2.40;;;;;;;;;;5116729;28;20050;-79
2023/08/12 04:52:25;;;;;;;6.78;2.35;;;;;;;;;;5098168;28;20047;-79
2023/08/12 04:54:53;;;;;;;3.80;2.20;;;;;;;;;;5098335;28;20402;-79
2023/08/12 04:57:18;;;;;;;4.22;2.70;;;;;;;;;;5116637;28;20054;-79
2023/08/12 04:59:44;;;;;;;5.30;3.20;;;;;;;;;;5116546;28;20468;-80
2023/08/12 05:02:09;;;;;;;3.95;2.78;;;;;;;;;;5098581;28;20028;-80
2023/08/12 05:04:34;;;;;;;9.05;3.65;;;;;;;;;;5116696;28;20115;-79
2023/08/12 05:07:00;;;;;;;2.88;2.35;;;;;;;;;;5116725;28;20039;-79
2023/08/12 05:09:25;;;;;;;2.30;2.10;;;;;;;;;;5098625;28;20478;-79
2023/08/12 05:11:51;;;;;;;4.82;2.50;;;;;;;;;;5097921;28;20031;-79
2023/08/12 05:14:16;;;;;;;2.25;2.05;;;;;;;;;;5116387;28;20043;-78
2023/08/12 05:16:42;;;;;;;3.00;2.00;;;;;;;;;;5098007;28;20027;-78
2023/08/12 05:19:07;;;;;;;4.22;2.30;;;;;;;;;;5097744;28;20478;-78
2023/08/12 05:21:32;;;;;;;3.38;2.47;;;;;;;;;;5097870;28;20076;-78
2023/08/12 05:23:58;;;;;;;5.07;2.65;;;;;;;;;;5098289;28;20035;-79
2023/08/12 05:26:23;;;;;;;2.65;2.38;;;;;;;;;;5098516;28;20036;-78
2023/08/12 05:28:49;;;;;;;4.50;2.50;;;;;;;;;;5098035;28;20032;-79
2023/08/12 05:31:14;;;;;;;3.13;2.40;;;;;;;;;;5081156;28;20470;-79
2023/08/12 05:33:42;;;;;;;3.63;2.58;;;;;;;;;;5097935;28;20114;-79
2023/08/12 05:36:08;;;;;;;4.22;2.58;;;;;;;;;;5097735;28;20173;-79
2023/08/12 05:38:34;;;;;;;3.78;2.55;;;;;;;;;;5116463;28;20493;-79
2023/08/12 05:40:59;;;;;;;3.80;2.42;;;;;;;;;;5115915;28;20023;-79
2023/08/12 05:43:25;;;;;;;5.00;2.45;;;;;;;;;;5097884;28;20442;-79
2023/08/12 05:45:50;;;;;;;3.42;2.55;;;;;;;;;;5097754;28;20474;-79
2023/08/12 05:48:15;;;;;;;3.38;2.20;;;;;;;;;;5097378;28;20027;-79
2023/08/12 05:50:41;;;;;;;2.42;2.22;;;;;;;;;;5115370;28;20049;-79
2023/08/12 05:53:06;;;;;;;3.78;2.40;;;;;;;;;;5115265;28;20378;-79
2023/08/12 05:55:34;;;;;;;3.53;2.38;;;;;;;;;;5116363;28;20062;-79
2023/08/12 05:58:00;;;;;;;3.10;2.40;;;;;;;;;;5080520;28;20027;-79
2023/08/12 06:00:25;;;;;;;3.15;2.20;;;;;;;;;;5063478;28;20028;-79
2023/08/12 06:02:50;;;;;;;3.38;2.00;;;;;;;;;;5097402;28;20024;-79
2023/08/12 06:05:16;;;;;;;4.25;2.58;;;;;;;;;;5097134;28;20027;-79
2023/08/12 06:07:41;;;;;;;2.60;2.08;;;;;;;;;;5115456;28;20024;-79
2023/08/12 06:10:07;;;;;;;3.45;2.22;;;;;;;;;;5097069;28;20486;-79
2023/08/12 06:12:32;;;;;;;3.58;2.38;;;;;;;;;;5097130;28;20048;-79
2023/08/12 06:14:57;;;;;;;4.03;2.50;;;;;;;;;;5080256;28;20465;-79
2023/08/12 06:17:23;;;;;;;2.63;2.22;;;;;;;;;;5096786;28;20031;-78
2023/08/12 06:19:48;;;;;;;2.88;1.90;;;;;;;;;;5115206;28;20027;-80
2023/08/12 06:22:14;;;;;;;4.85;2.30;;;;;;;;;;5097279;28;20032;-79
2023/08/12 06:24:39;;;;;;;3.17;2.45;;;;;;;;;;5080399;28;20104;-79
2023/08/12 06:27:05;;;;;;;5.20;2.58;;;;;;;;;;5115503;28;20077;-80
2023/08/12 06:29:30;;;;;;;3.80;2.38;;;;;;;;;;5080466;28;20027;-79
2023/08/12 06:31:56;;;;;;;2.88;2.40;;;;;;;;;;5130927;28;20028;-79
2023/08/12 06:34:21;;;;;;;3.45;2.10;;;;;;;;;;5100504;28;20064;-80
2023/08/12 06:36:46;;;;;;;4.82;2.33;;;;;;;;;;5115802;28;20031;-79
2023/08/12 06:39:12;;;;;;;3.90;2.20;;;;;;;;;;5096708;28;20042;-80
2023/08/12 06:41:37;;;;;;;2.58;2.10;;;;;;;;;;5116006;28;20110;-79
2023/08/12 06:44:04;;;;;;;2.75;2.20;;;;;;;;;;5096652;28;20032;-79
2023/08/12 06:46:30;;;;;;;2.33;2.08;;;;;;;;;;5097183;28;20031;-80
2023/08/12 06:48:56;;;;;;;3.47;2.00;;;;;;;;;;5079522;28;20032;-80
2023/08/12 06:51:21;;;;;;;5.00;2.25;;;;;;;;;;5095461;28;20092;-80
2023/08/12 06:53:47;;;;;;;2.30;1.90;;;;;;;;;;5079467;28;20033;-80
2023/08/12 06:56:12;;;;;;;3.28;2.13;;;;;;;;;;5114838;28;20386;-80
2023/08/12 06:58:38;;;;;;;5.88;2.47;;;;;;;;;;5080071;28;20406;-80
2023/08/12 07:01:03;;;;;;;3.88;2.00;;;;;;;;;;5114247;28;20023;-79
2023/08/12 07:03:28;;;;;;;3.35;2.28;;;;;;;;;;5096141;28;20039;-80
2023/08/12 07:05:54;;;;;;;3.05;1.80;;;;;;;;;;5096375;28;20055;-80
2023/08/12 07:08:20;;;;;;;4.45;2.22;;;;;;;;;;5079299;28;20076;-80
2023/08/12 07:10:45;;;;;;;3.97;2.00;;;;;;;;;;5095956;28;20023;-80
2023/08/12 07:13:10;;;;;;;3.00;1.85;;;;;;;;;;5079085;28;20031;-80
2023/08/12 07:15:36;;;;;;;2.75;1.85;;;;;;;;;;5079157;28;20482;-80
2023/08/12 07:18:01;;;;;;;3.60;1.95;;;;;;;;;;5114161;28;20474;-80
2023/08/12 07:20:27;;;;;;;2.47;1.67;;;;;;;;;;5095665;28;20410;-80
2023/08/12 07:22:53;;;;;;;1.65;1.55;;;;;;;;;;5096115;28;20023;-80
2023/08/12 07:25:18;;;;;;;2.38;1.50;;;;;;;;;;5095829;28;20080;-80
2023/08/12 07:27:44;;;;;;;2.00;1.80;;;;;;;;;;5114235;28;20479;-80
2023/08/12 07:30:10;;;;;;;3.05;1.88;;;;;;;;;;5095535;28;20482;-80
2023/08/12 07:32:39;;;;;;;3.10;2.20;;;;;;;;;;5061925;28;20034;-79
2023/08/12 07:35:05;;;;;;;2.67;1.90;;;;;;;;;;5078645;28;20027;-79
2023/08/12 07:37:31;;;;;;;2.78;1.90;;;;;;;;;;5114081;28;20377;-80
2023/08/12 07:39:56;;;;;;;3.03;1.80;;;;;;;;;;5078696;28;20122;-79
2023/08/12 07:42:22;;;;;;;4.00;2.00;;;;;;;;;;5079229;28;20463;-80
2023/08/12 07:44:48;;;;;;;2.00;1.75;;;;;;;;;;5079080;28;20031;-80
2023/08/12 07:47:15;;;;;;;2.58;1.80;;;;;;;;;;5114138;28;20032;-78
2023/08/12 07:49:40;;;;;;;2.70;1.90;;;;;;;;;;5114264;28;20038;-79
2023/08/12 07:52:06;;;;;;;2.15;1.70;;;;;;;;;;5089332;28;20503;-80
2023/08/12 07:54:31;;;;;;;1.70;1.60;;;;;;;;;;5092018;28;20044;-79
2023/08/12 07:56:56;;;;;;;3.33;1.63;;;;;;;;;;5092610;28;20225;-79
2023/08/12 07:59:22;;;;;;;1.95;1.70;;;;;;;;;;5092353;28;20054;-79
2023/08/12 08:01:47;;;;;;;2.17;1.40;;;;;;;;;;5094096;28;20073;-80
2023/08/12 08:04:12;;;;;;;2.13;1.60;;;;;;;;;;5075505;28;20032;-79
2023/08/12 08:06:38;;;;;;;3.17;1.63;;;;;;;;;;5093559;28;20105;-79
2023/08/12 08:09:04;;;;;;;4.10;1.70;;;;;;;;;;5093566;28;20036;-79
2023/08/12 08:11:30;;;;;;;4.03;1.83;;;;;;;;;;5092604;28;20024;-79
2023/08/12 08:13:57;;;;;;;1.80;1.60;;;;;;;;;;5078304;28;20372;-79
2023/08/12 08:16:22;;;;;;;1.65;1.40;;;;;;;;;;5079501;28;20390;-79
2023/08/12 08:18:47;;;;;;;3.03;1.60;;;;;;;;;;5097339;28;20066;-79
2023/08/12 08:21:13;;;;;;;1.50;1.40;;;;;;;;;;5095563;28;20024;-79
2023/08/12 08:23:40;;;;;;;2.08;1.65;;;;;;;;;;5095573;28;20169;-79
2023/08/12 08:26:06;;;;;;;1.67;1.45;;;;;;;;;;5095568;28;20068;-79
2023/08/12 08:28:31;;;;;;;1.48;1.38;;;;;;;;;;5096726;28;20427;-79
2023/08/12 08:30:57;;;;;;;2.65;1.45;;;;;;;;;;5078484;28;20028;-79
2023/08/12 08:33:22;;;;;;;2.55;1.35;;;;;;;;;;5095950;28;20069;-79
2023/08/12 08:35:47;;;;;;;2.00;1.50;;;;;;;;;;5095977;28;20065;-79
2023/08/12 08:38:13;;;;;;;2.20;1.35;;;;;;;;;;5097076;28;20039;-78
2023/08/12 08:40:38;;;;;;;2.92;1.55;;;;;;;;;;5095853;28;20036;-81
2023/08/12 08:43:07;;;;;;;1.80;1.23;;;;;;;;;;5097083;28;20166;-81
2023/08/12 08:45:35;;;;;;;1.40;1.30;;;;;;;;;;5078813;28;20059;-79
2023/08/12 08:48:05;;;;;;;1.33;1.23;;;;;;;;;;5097307;28;20039;-79
2023/08/12 08:50:31;;;;;;;1.60;1.48;;;;;;;;;;5095234;28;20043;-79
2023/08/12 08:52:56;;;;;;;1.52;1.42;;;;;;;;;;5111111;28;20043;-80
2023/08/12 08:55:22;;;;;;;1.52;1.35;;;;;;;;;;5098811;28;20024;-79
2023/08/12 08:57:48;;;;;;;2.17;1.27;;;;;;;;;;5099125;28;20031;-79
2023/08/12 09:00:15;;;;;;;2.78;1.35;;;;;;;;;;5117006;28;20070;-79
2023/08/12 09:02:41;;;;;;;2.10;1.35;;;;;;;;;;5117250;28;20069;-80
2023/08/12 09:05:07;;;;;;;2.05;1.30;;;;;;;;;;5117123;28;20035;-78
2023/08/12 09:07:32;;;;;;;1.27;1.17;;;;;;;;;;5082179;28;20477;-80
2023/08/12 09:09:58;;;;;;;1.33;1.23;;;;;;;;;;5081872;28;20078;-79
2023/08/12 09:12:24;;;;;;;2.08;1.00;;;;;;;;;;5081458;28;20485;-78
2023/08/12 09:14:49;;;;;;;1.30;1.20;;;;;;;;;;5098047;28;20030;-79
2023/08/12 09:17:15;;;;;;;1.38;1.27;;;;;;;;;;5097913;28;20033;-80
2023/08/12 09:19:40;;;;;;;1.38;1.08;;;;;;;;;;5116183;28;20023;-79
2023/08/12 09:22:08;;;;;;;1.23;1.13;;;;;;;;;;5116526;28;20035;-79
2023/08/12 09:24:34;;;;;;;1.30;1.20;;;;;;;;;;5097606;28;20024;-79
2023/08/12 09:26:59;;;;;;;1.80;1.20;;;;;;;;;;5097724;28;20116;-79
2023/08/12 09:29:32;;;;;;;1.48;1.13;;;;;;;;;;5097955;28;20038;-79
2023/08/12 09:32:18;;;;;;;1.25;1.10;;;;;;;;;;5097821;28;20111;-79
2023/08/12 09:34:51;;;;;;;1.00;1.00;;;;;;;;;;5116125;28;20038;-79
2023/08/12 09:37:17;;;;;;;1.07;0.90;;;;;;;;;;5097768;28;20194;-80
2023/08/12 09:39:43;;;;;;;2.10;1.08;;;;;;;;;;5097420;28;20382;-79
2023/08/12 09:42:09;;;;;;;0.98;0.90;;;;;;;;;;5097836;28;20035;-79
2023/08/12 09:44:38;;;;;;;2.30;0.95;;;;;;;;;;5098213;28;20092;-78
2023/08/12 09:47:05;;;;;;;1.10;1.08;;;;;;;;;;5080450;28;20118;-79
2023/08/12 09:49:30;;;;;;;0.90;0.90;;;;;;;;;;5115402;28;20054;-79
2023/08/12 09:51:56;;;;;;;0.80;0.80;;;;;;;;;;5115336;28;20055;-79
2023/08/12 09:54:24;;;;;;;2.20;0.90;;;;;;;;;;5097619;28;20521;-78
2023/08/12 09:56:56;;;;;;;0.90;0.90;;;;;;;;;;5097726;28;20359;-79
2023/08/12 09:59:22;;;;;;;1.30;0.90;;;;;;;;;;5097318;28;20026;-78
2023/08/12 10:01:49;;;;;;;2.17;0.90;;;;;;;;;;5080085;28;20020;-78
2023/08/12 10:04:17;;;;;;;0.88;0.80;;;;;;;;;;5097067;28;20026;-79
2023/08/12 10:06:44;;;;;;;0.65;0.65;;;;;;;;;;5097338;28;20056;-79
2023/08/12 10:09:11;;;;;;;1.00;0.85;;;;;;;;;;5097095;28;20146;-78
2023/08/12 10:11:36;;;;;;;1.05;1.00;;;;;;;;;;5097495;28;20474;-79
2023/08/12 10:14:03;;;;;;;1.45;0.90;;;;;;;;;;5097099;28;20071;-79
2023/08/12 10:16:29;;;;;;;0.90;0.90;;;;;;;;;;5097024;28;20035;-79
2023/08/12 10:18:56;;;;;;;0.93;0.93;;;;;;;;;;5097239;28;20024;-79
2023/08/12 10:21:23;;;;;;;1.83;0.90;;;;;;;;;;5079694;28;20470;-79
2023/08/12 10:23:50;;;;;;;1.30;1.05;;;;;;;;;;5115268;28;20548;-79
2023/08/12 10:26:17;;;;;;;2.33;0.88;;;;;;;;;;5114925;28;20032;-79
2023/08/12 10:28:43;;;;;;;2.67;1.00;;;;;;;;;;5096677;28;20032;-79
2023/08/12 10:31:08;;;;;;;1.45;0.98;;;;;;;;;;5096626;28;20034;-79
2023/08/12 10:33:41;;;;;;;1.17;1.02;;;;;;;;;;5097374;28;20107;-80
2023/08/12 10:36:07;;;;;;;2.78;0.90;;;;;;;;;;5079361;28;20031;-78
2023/08/12 10:38:33;;;;;;;1.58;1.00;;;;;;;;;;5115026;28;20059;-79
2023/08/12 10:41:21;;;;;;;1.33;1.00;;;;;;;;;;5096376;28;20058;-79
2023/08/12 10:44:03;;;;;;;1.58;1.02;;;;;;;;;;5079839;28;20084;-79
2023/08/12 10:46:36;;;;;;;2.13;0.90;;;;;;;;;;5115072;28;20027;-79
2023/08/12 10:49:10;;;;;;;1.30;0.90;;;;;;;;;;5115143;28;20177;-79
2023/08/12 10:51:45;;;;;;;1.35;1.05;;;;;;;;;;5114698;28;20048;-79
2023/08/12 10:54:13;;;;;;;0.93;0.85;;;;;;;;;;5096281;28;20118;-78
2023/08/12 10:57:01;;;;;;;1.65;0.70;;;;;;;;;;5114840;28;20034;-78
2023/08/12 10:59:44;;;;;;;1.05;0.90;;;;;;;;;;5096501;28;20020;-78
2023/08/12 11:02:17;;;;;;;1.65;0.93;;;;;;;;;;5115185;28;20072;-79
2023/08/12 11:04:42;;;;;;;2.08;1.10;;;;;;;;;;5096308;28;20106;-79
2023/08/12 11:07:38;;;;;;;1.40;0.80;;;;;;;;;;5096425;28;20105;-79
2023/08/12 11:10:07;;;;;;;1.55;1.02;;;;;;;;;;5077644;28;20042;-79
2023/08/12 11:12:34;;;;;;;1.58;1.02;;;;;;;;;;5080459;28;20024;-79
2023/08/12 11:15:01;;;;;;;1.60;0.98;;;;;;;;;;5098215;28;20016;-79
2023/08/12 11:17:41;;;;;;;2.03;1.08;;;;;;;;;;5099721;28;20024;-79
2023/08/12 11:20:09;;;;;;;1.80;1.00;;;;;;;;;;5099517;28;20027;-79
2023/08/12 11:22:42;;;;;;;1.38;1.13;;;;;;;;;;5099113;28;20066;-78
2023/08/12 11:25:09;;;;;;;1.98;1.10;;;;;;;;;;5080350;28;20100;-79
2023/08/12 11:27:38;;;;;;;1.83;1.05;;;;;;;;;;5079792;28;20022;-79
2023/08/12 11:30:04;;;;;;;1.52;1.10;;;;;;;;;;5096338;28;20482;-79
2023/08/12 11:32:30;;;;;;;1.23;0.85;;;;;;;;;;5095981;28;20028;-79
2023/08/12 11:34:55;;;;;;;2.03;1.20;;;;;;;;;;5113980;28;20442;-79
2023/08/12 11:37:21;;;;;;;1.75;1.00;;;;;;;;;;5078396;28;20047;-80
2023/08/12 11:39:46;;;;;;;1.33;1.00;;;;;;;;;;5094782;28;20024;-79
2023/08/12 11:42:12;;;;;;;2.63;1.50;;;;;;;;;;5113622;28;20419;-79
2023/08/12 11:44:41;;;;;;;6.28;0.90;;;;;;;;;;5113133;28;20547;-79
2023/08/12 11:47:06;;;;;;;2.55;1.35;;;;;;;;;;5095046;28;20031;-79
2023/08/12 11:49:32;;;;;;;2.28;1.40;;;;;;;;;;5113717;28;20032;-79
2023/08/12 11:51:57;;;;;;;1.77;1.13;;;;;;;;;;5112803;28;20051;-79
2023/08/12 11:54:23;;;;;;;2.60;1.20;;;;;;;;;;5078403;28;20035;-80
2023/08/12 11:56:48;;;;;;;2.67;1.48;;;;;;;;;;5095490;28;20312;-79
2023/08/12 11:59:14;;;;;;;2.28;1.20;;;;;;;;;;5113429;28;20053;-80
2023/08/12 12:01:39;;;;;;;2.30;1.10;;;;;;;;;;5113633;28;20107;-80
2023/08/12 12:04:04;;;;;;;1.98;1.20;;;;;;;;;;5113522;28;20066;-79
2023/08/12 12:06:36;;;;;;;2.60;1.05;;;;;;;;;;5078271;28;20035;-79
2023/08/12 12:09:09;;;;;;;2.42;0.88;;;;;;;;;;5113626;28;20027;-79
2023/08/12 12:11:36;;;;;;;3.47;1.42;;;;;;;;;;5095488;28;20047;-80
2023/08/12 12:14:03;;;;;;;2.55;1.10;;;;;;;;;;5113322;28;20106;-79
2023/08/12 12:16:43;;;;;;;2.53;1.30;;;;;;;;;;5095214;28;20027;-79
2023/08/12 12:19:21;;;;;;;1.90;1.00;;;;;;;;;;5095379;28;20027;-79
2023/08/12 12:21:50;;;;;;;2.35;1.20;;;;;;;;;;5113463;28;20028;-79
2023/08/12 12:24:16;;;;;;;2.58;1.20;;;;;;;;;;5078748;28;20382;-79
2023/08/12 12:26:41;;;;;;;2.20;1.17;;;;;;;;;;5095097;28;20035;-80
2023/08/12 12:29:07;;;;;;;2.58;1.30;;;;;;;;;;5061409;28;20036;-80
2023/08/12 12:31:34;;;;;;;2.35;1.10;;;;;;;;;;5078044;28;20024;-79
2023/08/12 12:34:00;;;;;;;1.95;1.10;;;;;;;;;;5078562;28;20112;-79
2023/08/12 12:36:26;;;;;;;2.35;1.30;;;;;;;;;;5094830;28;20031;-79
2023/08/12 12:38:51;;;;;;;2.85;1.10;;;;;;;;;;5094619;28;20374;-79
2023/08/12 12:41:17;;;;;;;2.78;1.10;;;;;;;;;;5077846;28;20140;-79
2023/08/12 12:43:42;;;;;;;2.33;1.40;;;;;;;;;;5094622;28;20077;-79
2023/08/12 12:46:08;;;;;;;2.25;1.27;;;;;;;;;;5112847;28;20474;-80
2023/08/12 12:48:33;;;;;;;2.08;1.27;;;;;;;;;;5094924;28;20027;-80
2023/08/12 12:50:59;;;;;;;1.85;1.23;;;;;;;;;;5112974;28;20054;-79
2023/08/12 12:53:24;;;;;;;2.60;1.17;;;;;;;;;;5094727;28;20058;-79
2023/08/12 12:55:50;;;;;;;2.63;1.42;;;;;;;;;;5095146;28;20043;-79
2023/08/12 12:58:16;;;;;;;3.63;0.90;;;;;;;;;;5095857;28;20114;-78
2023/08/12 13:00:41;;;;;;;3.65;1.17;;;;;;;;;;5100493;28;20028;-79
2023/08/12 13:03:07;;;;;;;3.03;1.30;;;;;;;;;;5117486;28;20055;-78
2023/08/12 13:05:32;;;;;;;1.70;1.23;;;;;;;;;;5116911;28;20024;-79
2023/08/12 13:07:58;;;;;;;2.42;0.95;;;;;;;;;;5065255;28;20114;-79
2023/08/12 13:10:23;;;;;;;4.28;1.05;;;;;;;;;;5082869;28;20118;-81
2023/08/12 13:12:48;;;;;;;5.05;1.27;;;;;;;;;;5099418;28;20043;-79
2023/08/12 13:15:14;;;;;;;3.30;1.30;;;;;;;;;;5099188;28;20040;-79
2023/08/12 13:17:40;;;;;;;2.92;1.15;;;;;;;;;;5081829;28;20469;-79
2023/08/12 13:20:06;;;;;;;3.10;1.10;;;;;;;;;;5116861;28;20126;-79
2023/08/12 13:22:31;;;;;;;2.20;1.20;;;;;;;;;;5098418;28;20043;-79
2023/08/12 13:24:56;;;;;;;2.95;1.00;;;;;;;;;;5116639;28;20027;-79
2023/08/12 13:27:23;;;;;;;3.17;1.33;;;;;;;;;;5116318;28;20539;-80
2023/08/12 13:29:48;;;;;;;2.80;1.20;;;;;;;;;;5098206;28;20032;-79
2023/08/12 13:32:14;;;;;;;3.65;1.23;;;;;;;;;;5097912;28;20032;-79
2023/08/12 13:34:39;;;;;;;2.33;1.00;;;;;;;;;;5098034;28;20107;-79
2023/08/12 13:37:05;;;;;;;1.20;0.90;;;;;;;;;;5115932;28;20024;-79
2023/08/12 13:39:31;;;;;;;1.38;0.73;;;;;;;;;;5097381;28;20041;-79
2023/08/12 13:41:56;;;;;;;1.58;1.02;;;;;;;;;;5097673;28;20099;-80
2023/08/12 13:44:22;;;;;;;3.25;1.20;;;;;;;;;;5116335;28;20150;-83
2023/08/12 13:46:47;;;;;;;2.72;0.90;;;;;;;;;;5097584;28;20099;-80
2023/08/12 13:49:12;;;;;;;1.23;0.93;;;;;;;;;;5080687;28;20035;-81
2023/08/12 13:51:38;;;;;;;2.55;1.20;;;;;;;;;;5080242;28;20063;-82
2023/08/12 13:54:04;;;;;;;2.38;1.00;;;;;;;;;;5115951;28;20034;-81
2023/08/12 13:56:29;;;;;;;1.77;1.15;;;;;;;;;;5097357;28;20453;-80
2023/08/12 13:58:55;;;;;;;2.28;1.23;;;;;;;;;;5080443;28;20039;-80
2023/08/12 14:01:21;;;;;;;2.50;1.20;;;;;;;;;;5080758;28;20051;-80
2023/08/12 14:03:47;;;;;;;3.55;1.42;;;;;;;;;;5097043;28;20546;-80
2023/08/12 14:06:12;;;;;;;2.78;1.30;;;;;;;;;;5115512;28;20031;-80
2023/08/12 14:08:37;;;;;;;4.30;1.25;;;;;;;;;;5097190;28;20092;-79
2023/08/12 14:11:03;;;;;;;3.42;1.17;;;;;;;;;;5115502;28;20023;-78
2023/08/12 14:13:29;;;;;;;2.90;0.93;;;;;;;;;;5115461;28;20051;-78
2023/08/12 14:15:54;;;;;;;5.28;1.70;;;;;;;;;;5115144;28;20028;-78
2023/08/12 14:18:19;;;;;;;4.63;1.63;;;;;;;;;;5096891;28;20458;-77
2023/08/12 14:20:45;;;;;;;3.72;1.50;;;;;;;;;;5115742;28;20057;-79
2023/08/12 14:23:10;;;;;;;1.65;1.15;;;;;;;;;;5115508;28;20043;-78
2023/08/12 14:25:36;;;;;;;2.58;1.30;;;;;;;;;;5096972;28;20458;-78
2023/08/12 14:28:01;;;;;;;3.67;1.20;;;;;;;;;;5096962;28;20039;-78
2023/08/12 14:30:26;;;;;;;2.85;1.25;;;;;;;;;;5115362;28;20027;-78
2023/08/12 14:32:52;;;;;;;5.45;1.45;;;;;;;;;;5096974;28;20024;-78
2023/08/12 14:35:18;;;;;;;2.60;1.48;;;;;;;;;;5115103;28;20474;-83
2023/08/12 14:37:43;;;;;;;1.98;1.08;;;;;;;;;;5114465;28;20102;-78